Hidden Valley Lake, CA (95467)

8:10 PM PST on January 17, 2017 (GMT -0800)
Riley's Place,10th Tee Hidden Valley Lake | | Change Station
Active Advisory: Small Craft Advisory

Elev 980 ft 38.80 °N, 122.55 °W | Updated 3 seconds ago

Mostly Cloudy
Mostly Cloudy
46.5 °F
Feels Like 46 °F
N
0.0
Wind Variable Wind from SE
Gusts 1.0 mph

Today
High -- | Low -- °F
--% Chance of Precip.
Yesterday
High -- | Low -- °F
Precip. -- in
Pressure 30.11 in
Visibility 6.0 miles
Clouds Scattered Clouds 12000 ft
Windchill 46 °F
Dew Point 40 °F
Humidity 78%
Rainfall 0.00 in
Snow Depth Not available.
7:26 AM 5:15 PM
Waning Gibbous, 67% visible
METAR KSTS 180353Z AUTO 00000KT 6SM BR SCT120 08/06 A3012 RMK AO2 SLP194 T00780056
Pressure 30.11 in
Visibility 6.0 miles
Clouds Scattered Clouds 12000 ft
Windchill 46 °F
Dew Point 40 °F
Humidity 78%
Rainfall 0.00 in
Snow Depth Not available.
7:26 AM 5:15 PM
Waning Gibbous, 67% visible
METAR KSTS 180353Z AUTO 00000KT 6SM BR SCT120 08/06 A3012 RMK AO2 SLP194 T00780056

Get Your Daily Forecast Email!

Thanks for signing up!

Be on the lookout for a verification email in your inbox.

You'll start receiving the daily forecast at 8 AM.

×

10-Day Weather Forecast

Almanac

Astronomy

Jan. 17, 2017 Rise Set
Actual Time
Civil Twilight
Nautical Twilight
Astronomical Twilight
Moon
Length of Visible Light
Length of Day
Tomorrow will be .
, % of the Moon is Illuminated

Today's Extremes

State Highs State Lows

Community

WunderPhotos

Upload Photos

1,962,540 photos uploaded!

WunderBlog® & News

Nearby

Air Quality

  Air Quality AQ Index Pollutant
Not available.

Snow Depth

Station Depth Elevation

Earthquake Activity

City Distance Mag. Time & Date
Minimum magnitude displayed is 2.5.

Coastal Water Temperatures

Place Temperature

Stations

Nearby Weather Stations

Station Location Temp. Windchill Dew Point Humidity Wind Precip. Elev Updated Type
                   

Watches & Warnings

Small Craft Advisory
Issued: 2:25 PM PST Jan. 17, 2017 – National Weather Service

... Small Craft Advisory remains in effect from 1 PM to 9 PM PST
Wednesday...

A Small Craft Advisory remains in effect from 1 PM to 9 PM PST
Wednesday.

* Winds and waves: see the coastal waters forecast (cwfmtr) or
our marine Page at http://weather.Gov/sanfrancisco/marine.Php
for more details.

Precautionary/preparedness actions...

A Small Craft Advisory means that wind speeds of 21 to 33 knots
are expected to produce hazardous wave conditions to small craft.
Inexperienced mariners... especially those operating smaller
vessels should avoid navigating in these conditions.